sensor_id;sensor_type;location;lat;lon;timestamp;pressure;altitude;pressure_sealevel;temperature;humidity
57024;BME280;42916;54.346;18.562;2023-03-14T00:02:10;97952.27;;;9.88;100.00
57024;BME280;42916;54.346;18.562;2023-03-14T00:04:37;97958.45;;;9.88;100.00
57024;BME280;42916;54.346;18.562;2023-03-14T00:07:04;97967.80;;;9.86;100.00
57024;BME280;42916;54.346;18.562;2023-03-14T00:09:31;97966.80;;;9.84;100.00
57024;BME280;42916;54.346;18.562;2023-03-14T00:11:58;97977.98;;;9.83;100.00
57024;BME280;42916;54.346;18.562;2023-03-14T00:14:25;97978.73;;;9.81;100.00
57024;BME280;42916;54.346;18.562;2023-03-14T00:16:52;97982.07;;;9.77;100.00
57024;BME280;42916;54.346;18.562;2023-03-14T00:19:18;97984.89;;;9.75;100.00
57024;BME280;42916;54.346;18.562;2023-03-14T00:21:45;97988.91;;;9.73;100.00
57024;BME280;42916;54.346;18.562;2023-03-14T00:24:13;98002.46;;;9.72;100.00
57024;BME280;42916;54.346;18.562;2023-03-14T00:26:40;97997.88;;;9.70;100.00
57024;BME280;42916;54.346;18.562;2023-03-14T00:29:07;97988.95;;;9.70;100.00
57024;BME280;42916;54.346;18.562;2023-03-14T00:31:33;97975.66;;;9.69;100.00
57024;BME280;42916;54.346;18.562;2023-03-14T00:34:02;97973.96;;;9.69;100.00
57024;BME280;42916;54.346;18.562;2023-03-14T00:36:31;97972.20;;;9.68;100.00
57024;BME280;42916;54.346;18.562;2023-03-14T00:38:58;97976.53;;;9.66;100.00
57024;BME280;42916;54.346;18.562;2023-03-14T00:41:25;97963.05;;;9.67;100.00
57024;BME280;42916;54.346;18.562;2023-03-14T00:43:52;97952.39;;;9.68;100.00
57024;BME280;42916;54.346;18.562;2023-03-14T00:46:20;97949.48;;;9.69;100.00
57024;BME280;42916;54.346;18.562;2023-03-14T00:48:47;97953.20;;;9.70;100.00
57024;BME280;42916;54.346;18.562;2023-03-14T00:51:14;97959.33;;;9.73;100.00
57024;BME280;42916;54.346;18.562;2023-03-14T00:53:44;97960.96;;;9.74;100.00
57024;BME280;42916;54.346;18.562;2023-03-14T00:56:12;97974.32;;;9.75;100.00
57024;BME280;42916;54.346;18.562;2023-03-14T00:58:39;97974.48;;;9.75;100.00
57024;BME280;42916;54.346;18.562;2023-03-14T01:01:08;97968.70;;;9.76;100.00
57024;BME280;42916;54.346;18.562;2023-03-14T01:03:36;97981.02;;;9.76;100.00
57024;BME280;42916;54.346;18.562;2023-03-14T01:06:14;97975.41;;;9.76;100.00
57024;BME280;42916;54.346;18.562;2023-03-14T01:08:44;97981.77;;;9.77;100.00
57024;BME280;42916;54.346;18.562;2023-03-14T01:11:19;97958.78;;;9.77;100.00
57024;BME280;42916;54.346;18.562;2023-03-14T01:13:47;97947.82;;;9.77;100.00
57024;BME280;42916;54.346;18.562;2023-03-14T01:16:14;97950.91;;;9.77;100.00
57024;BME280;42916;54.346;18.562;2023-03-14T01:18:43;97942.33;;;9.77;100.00
57024;BME280;42916;54.346;18.562;2023-03-14T01:21:29;97940.32;;;9.77;100.00
57024;BME280;42916;54.346;18.562;2023-03-14T01:23:58;97955.30;;;9.77;100.00
57024;BME280;42916;54.346;18.562;2023-03-14T01:26:26;97948.73;;;9.78;100.00
57024;BME280;42916;54.346;18.562;2023-03-14T01:28:55;97940.35;;;9.78;100.00
57024;BME280;42916;54.346;18.562;2023-03-14T01:31:22;97939.63;;;9.79;100.00
57024;BME280;42916;54.346;18.562;2023-03-14T01:33:50;97931.98;;;9.78;100.00
57024;BME280;42916;54.346;18.562;2023-03-14T01:36:17;97939.84;;;9.79;100.00
57024;BME280;42916;54.346;18.562;2023-03-14T01:38:44;97941.38;;;9.78;100.00
57024;BME280;42916;54.346;18.562;2023-03-14T01:41:16;97938.14;;;9.79;100.00
57024;BME280;42916;54.346;18.562;2023-03-14T01:43:45;97940.90;;;9.80;100.00
57024;BME280;42916;54.346;18.562;2023-03-14T01:46:28;97932.89;;;9.81;100.00
57024;BME280;42916;54.346;18.562;2023-03-14T01:54:05;97935.38;;;9.77;100.00
57024;BME280;42916;54.346;18.562;2023-03-14T01:56:33;97925.27;;;9.77;100.00
57024;BME280;42916;54.346;18.562;2023-03-14T01:59:04;97921.98;;;9.78;100.00
57024;BME280;42916;54.346;18.562;2023-03-14T02:01:34;97919.85;;;9.77;100.00
57024;BME280;42916;54.346;18.562;2023-03-14T02:04:04;97914.92;;;9.77;100.00
57024;BME280;42916;54.346;18.562;2023-03-14T02:06:50;97910.90;;;9.79;100.00
57024;BME280;42916;54.346;18.562;2023-03-14T02:09:20;97904.58;;;9.78;100.00
57024;BME280;42916;54.346;18.562;2023-03-14T02:11:47;97899.67;;;9.76;100.00
57024;BME280;42916;54.346;18.562;2023-03-14T02:14:47;97890.39;;;9.76;100.00
57024;BME280;42916;54.346;18.562;2023-03-14T02:17:25;97890.80;;;9.75;100.00
57024;BME280;42916;54.346;18.562;2023-03-14T02:23:02;97902.96;;;9.69;100.00
57024;BME280;42916;54.346;18.562;2023-03-14T02:25:40;97911.34;;;9.66;100.00
57024;BME280;42916;54.346;18.562;2023-03-14T02:28:10;97906.27;;;9.62;100.00
57024;BME280;42916;54.346;18.562;2023-03-14T02:30:39;97908.79;;;9.59;100.00
57024;BME280;42916;54.346;18.562;2023-03-14T02:33:24;97901.70;;;9.56;100.00
57024;BME280;42916;54.346;18.562;2023-03-14T02:35:55;97901.20;;;9.54;100.00
57024;BME280;42916;54.346;18.562;2023-03-14T02:38:34;97900.28;;;9.54;100.00
57024;BME280;42916;54.346;18.562;2023-03-14T02:41:04;97894.35;;;9.55;100.00
57024;BME280;42916;54.346;18.562;2023-03-14T02:43:33;97889.63;;;9.55;100.00
57024;BME280;42916;54.346;18.562;2023-03-14T02:46:04;97878.41;;;9.56;100.00
57024;BME280;42916;54.346;18.562;2023-03-14T02:48:45;97872.68;;;9.56;100.00
57024;BME280;42916;54.346;18.562;2023-03-14T02:51:15;97883.83;;;9.55;100.00
57024;BME280;42916;54.346;18.562;2023-03-14T02:53:45;97880.09;;;9.57;100.00
57024;BME280;42916;54.346;18.562;2023-03-14T02:56:12;97883.16;;;9.57;100.00
57024;BME280;42916;54.346;18.562;2023-03-14T02:58:39;97898.58;;;9.57;100.00
57024;BME280;42916;54.346;18.562;2023-03-14T03:01:15;97903.20;;;9.55;100.00
57024;BME280;42916;54.346;18.562;2023-03-14T03:03:41;97913.77;;;9.53;100.00
57024;BME280;42916;54.346;18.562;2023-03-14T03:06:08;97932.19;;;9.50;100.00
57024;BME280;42916;54.346;18.562;2023-03-14T03:08:35;97937.20;;;9.47;100.00
57024;BME280;42916;54.346;18.562;2023-03-14T03:11:03;97931.57;;;9.44;100.00
57024;BME280;42916;54.346;18.562;2023-03-14T03:13:32;97928.48;;;9.41;100.00
57024;BME280;42916;54.346;18.562;2023-03-14T03:16:01;97932.25;;;9.41;100.00
57024;BME280;42916;54.346;18.562;2023-03-14T03:18:29;97936.27;;;9.42;100.00
57024;BME280;42916;54.346;18.562;2023-03-14T03:21:00;97952.55;;;9.45;100.00
57024;BME280;42916;54.346;18.562;2023-03-14T03:23:27;97952.64;;;9.49;100.00
57024;BME280;42916;54.346;18.562;2023-03-14T03:25:54;97967.67;;;9.51;100.00
57024;BME280;42916;54.346;18.562;2023-03-14T03:28:20;97959.86;;;9.53;100.00
57024;BME280;42916;54.346;18.562;2023-03-14T03:30:47;97961.94;;;9.54;100.00
57024;BME280;42916;54.346;18.562;2023-03-14T03:33:15;97958.66;;;9.55;100.00
57024;BME280;42916;54.346;18.562;2023-03-14T03:35:46;97961.36;;;9.58;100.00
57024;BME280;42916;54.346;18.562;2023-03-14T03:38:14;97966.35;;;9.63;100.00
57024;BME280;42916;54.346;18.562;2023-03-14T03:40:42;97966.40;;;9.66;100.00
57024;BME280;42916;54.346;18.562;2023-03-14T03:43:09;97972.66;;;9.67;100.00
57024;BME280;42916;54.346;18.562;2023-03-14T03:45:37;97981.55;;;9.69;100.00
57024;BME280;42916;54.346;18.562;2023-03-14T03:48:05;97979.55;;;9.69;100.00
57024;BME280;42916;54.346;18.562;2023-03-14T03:50:32;97983.48;;;9.69;100.00
57024;BME280;42916;54.346;18.562;2023-03-14T03:52:59;97979.74;;;9.69;100.00
57024;BME280;42916;54.346;18.562;2023-03-14T03:55:26;97975.84;;;9.70;100.00
57024;BME280;42916;54.346;18.562;2023-03-14T03:57:54;97970.52;;;9.70;100.00
57024;BME280;42916;54.346;18.562;2023-03-14T04:00:21;97971.19;;;9.71;100.00
57024;BME280;42916;54.346;18.562;2023-03-14T04:02:48;97968.02;;;9.73;100.00
57024;BME280;42916;54.346;18.562;2023-03-14T04:05:17;97969.02;;;9.74;100.00
57024;BME280;42916;54.346;18.562;2023-03-14T04:07:50;97955.44;;;9.74;100.00
57024;BME280;42916;54.346;18.562;2023-03-14T04:10:22;97955.11;;;9.74;100.00
57024;BME280;42916;54.346;18.562;2023-03-14T04:13:05;97949.74;;;9.74;100.00
57024;BME280;42916;54.346;18.562;2023-03-14T04:15:33;97954.58;;;9.74;100.00
57024;BME280;42916;54.346;18.562;2023-03-14T04:18:05;97953.50;;;9.76;100.00
57024;BME280;42916;54.346;18.562;2023-03-14T04:20:34;97954.44;;;9.77;100.00
57024;BME280;42916;54.346;18.562;2023-03-14T04:23:02;97948.98;;;9.80;100.00
57024;BME280;42916;54.346;18.562;2023-03-14T04:25:28;97939.77;;;9.82;100.00
57024;BME280;42916;54.346;18.562;2023-03-14T04:27:58;97930.99;;;9.84;100.00
57024;BME280;42916;54.346;18.562;2023-03-14T04:30:28;97921.63;;;9.84;100.00
57024;BME280;42916;54.346;18.562;2023-03-14T04:32:58;97916.49;;;9.84;100.00
57024;BME280;42916;54.346;18.562;2023-03-14T04:35:27;97911.42;;;9.85;100.00
57024;BME280;42916;54.346;18.562;2023-03-14T04:37:57;97912.49;;;9.84;100.00
57024;BME280;42916;54.346;18.562;2023-03-14T04:40:25;97904.60;;;9.85;100.00
57024;BME280;42916;54.346;18.562;2023-03-14T04:42:55;97908.06;;;9.86;100.00
57024;BME280;42916;54.346;18.562;2023-03-14T04:45:23;97906.45;;;9.85;100.00
57024;BME280;42916;54.346;18.562;2023-03-14T04:47:50;97905.98;;;9.83;100.00
57024;BME280;42916;54.346;18.562;2023-03-14T04:50:19;97897.30;;;9.79;100.00
57024;BME280;42916;54.346;18.562;2023-03-14T04:52:47;97890.45;;;9.78;100.00
57024;BME280;42916;54.346;18.562;2023-03-14T04:55:15;97887.80;;;9.77;100.00
57024;BME280;42916;54.346;18.562;2023-03-14T04:57:42;97881.34;;;9.75;100.00
57024;BME280;42916;54.346;18.562;2023-03-14T05:00:10;97874.08;;;9.73;100.00
57024;BME280;42916;54.346;18.562;2023-03-14T05:03:06;97860.78;;;9.70;100.00
57024;BME280;42916;54.346;18.562;2023-03-14T05:05:46;97855.16;;;9.68;100.00
57024;BME280;42916;54.346;18.562;2023-03-14T05:08:39;97844.07;;;9.64;100.00
57024;BME280;42916;54.346;18.562;2023-03-14T05:11:22;97840.48;;;9.60;100.00
57024;BME280;42916;54.346;18.562;2023-03-14T05:14:05;97835.54;;;9.56;100.00
57024;BME280;42916;54.346;18.562;2023-03-14T05:16:38;97831.94;;;9.52;100.00
57024;BME280;42916;54.346;18.562;2023-03-14T05:19:23;97829.35;;;9.50;100.00
57024;BME280;42916;54.346;18.562;2023-03-14T05:22:19;97825.25;;;9.47;100.00
57024;BME280;42916;54.346;18.562;2023-03-14T05:25:07;97824.36;;;9.43;100.00
57024;BME280;42916;54.346;18.562;2023-03-14T05:27:56;97814.00;;;9.40;100.00
57024;BME280;42916;54.346;18.562;2023-03-14T05:30:32;97814.60;;;9.38;100.00
57024;BME280;42916;54.346;18.562;2023-03-14T05:33:19;97830.71;;;9.37;100.00
57024;BME280;42916;54.346;18.562;2023-03-14T05:36:24;97833.64;;;9.37;100.00
57024;BME280;42916;54.346;18.562;2023-03-14T05:39:06;97842.33;;;9.36;100.00
57024;BME280;42916;54.346;18.562;2023-03-14T05:42:02;97852.86;;;9.36;100.00
57024;BME280;42916;54.346;18.562;2023-03-14T05:44:55;97851.45;;;9.36;100.00
57024;BME280;42916;54.346;18.562;2023-03-14T05:47:46;97856.14;;;9.35;100.00
57024;BME280;42916;54.346;18.562;2023-03-14T05:50:37;97866.23;;;9.35;100.00
57024;BME280;42916;54.346;18.562;2023-03-14T05:53:21;97863.10;;;9.37;100.00
57024;BME280;42916;54.346;18.562;2023-03-14T05:56:16;97859.81;;;9.40;100.00
57024;BME280;42916;54.346;18.562;2023-03-14T05:59:08;97863.26;;;9.44;100.00
57024;BME280;42916;54.346;18.562;2023-03-14T06:02:05;97860.70;;;9.49;100.00
57024;BME280;42916;54.346;18.562;2023-03-14T06:04:39;97866.05;;;9.54;100.00
57024;BME280;42916;54.346;18.562;2023-03-14T06:07:06;97869.58;;;9.56;100.00
57024;BME280;42916;54.346;18.562;2023-03-14T06:09:32;97872.43;;;9.59;100.00
57024;BME280;42916;54.346;18.562;2023-03-14T06:12:00;97876.64;;;9.60;100.00
57024;BME280;42916;54.346;18.562;2023-03-14T06:14:29;97879.51;;;9.62;100.00
57024;BME280;42916;54.346;18.562;2023-03-14T06:16:59;97878.52;;;9.64;100.00
57024;BME280;42916;54.346;18.562;2023-03-14T06:19:31;97884.89;;;9.66;100.00
57024;BME280;42916;54.346;18.562;2023-03-14T06:21:58;97887.95;;;9.68;100.00
57024;BME280;42916;54.346;18.562;2023-03-14T06:24:25;97883.11;;;9.70;100.00
57024;BME280;42916;54.346;18.562;2023-03-14T06:26:53;97884.80;;;9.72;100.00
57024;BME280;42916;54.346;18.562;2023-03-14T06:29:20;97881.52;;;9.74;100.00
57024;BME280;42916;54.346;18.562;2023-03-14T06:31:46;97878.55;;;9.77;100.00
57024;BME280;42916;54.346;18.562;2023-03-14T06:34:15;97879.95;;;9.80;100.00
57024;BME280;42916;54.346;18.562;2023-03-14T06:36:43;97873.02;;;9.83;100.00
57024;BME280;42916;54.346;18.562;2023-03-14T06:39:10;97880.28;;;9.87;100.00
57024;BME280;42916;54.346;18.562;2023-03-14T06:41:40;97886.67;;;9.92;100.00
57024;BME280;42916;54.346;18.562;2023-03-14T06:44:07;97889.54;;;9.96;100.00
57024;BME280;42916;54.346;18.562;2023-03-14T06:46:34;97885.02;;;9.99;100.00
57024;BME280;42916;54.346;18.562;2023-03-14T06:49:01;97878.91;;;10.02;100.00
57024;BME280;42916;54.346;18.562;2023-03-14T06:51:28;97876.23;;;10.03;100.00
57024;BME280;42916;54.346;18.562;2023-03-14T06:53:54;97880.04;;;10.04;100.00
57024;BME280;42916;54.346;18.562;2023-03-14T06:56:23;97885.15;;;10.06;100.00
57024;BME280;42916;54.346;18.562;2023-03-14T06:58:50;97877.44;;;10.08;100.00
57024;BME280;42916;54.346;18.562;2023-03-14T07:01:23;97871.26;;;10.13;100.00
57024;BME280;42916;54.346;18.562;2023-03-14T07:03:51;97876.46;;;10.20;100.00
57024;BME280;42916;54.346;18.562;2023-03-14T07:06:18;97880.14;;;10.26;100.00
57024;BME280;42916;54.346;18.562;2023-03-14T07:08:45;97880.90;;;10.30;100.00
57024;BME280;42916;54.346;18.562;2023-03-14T07:11:12;97890.46;;;10.35;100.00
57024;BME280;42916;54.346;18.562;2023-03-14T07:13:39;97890.30;;;10.39;100.00
57024;BME280;42916;54.346;18.562;2023-03-14T07:16:08;97891.61;;;10.43;100.00
57024;BME280;42916;54.346;18.562;2023-03-14T07:18:37;97893.09;;;10.46;100.00
57024;BME280;42916;54.346;18.562;2023-03-14T07:21:06;97889.61;;;10.48;100.00
57024;BME280;42916;54.346;18.562;2023-03-14T07:23:33;97887.20;;;10.52;100.00
57024;BME280;42916;54.346;18.562;2023-03-14T07:26:01;97887.68;;;10.60;100.00
57024;BME280;42916;54.346;18.562;2023-03-14T07:28:29;97876.50;;;10.69;100.00
57024;BME280;42916;54.346;18.562;2023-03-14T07:31:09;97864.74;;;10.80;100.00
57024;BME280;42916;54.346;18.562;2023-03-14T07:33:38;97859.48;;;10.90;100.00
57024;BME280;42916;54.346;18.562;2023-03-14T07:36:05;97857.77;;;11.00;100.00
57024;BME280;42916;54.346;18.562;2023-03-14T07:38:32;97856.69;;;11.08;100.00
57024;BME280;42916;54.346;18.562;2023-03-14T07:41:23;97847.69;;;11.19;100.00
57024;BME280;42916;54.346;18.562;2023-03-14T07:44:09;97846.38;;;11.32;100.00
57024;BME280;42916;54.346;18.562;2023-03-14T07:46:36;97845.89;;;11.44;100.00
57024;BME280;42916;54.346;18.562;2023-03-14T07:49:03;97845.96;;;11.53;100.00
57024;BME280;42916;54.346;18.562;2023-03-14T07:51:30;97845.62;;;11.60;100.00
57024;BME280;42916;54.346;18.562;2023-03-14T07:53:56;97845.48;;;11.68;100.00
57024;BME280;42916;54.346;18.562;2023-03-14T07:56:23;97837.06;;;11.75;100.00
57024;BME280;42916;54.346;18.562;2023-03-14T07:58:50;97838.13;;;11.80;100.00
57024;BME280;42916;54.346;18.562;2023-03-14T08:01:17;97837.02;;;11.83;100.00
57024;BME280;42916;54.346;18.562;2023-03-14T08:03:43;97827.66;;;11.85;100.00
57024;BME280;42916;54.346;18.562;2023-03-14T08:06:10;97825.55;;;11.88;100.00
57024;BME280;42916;54.346;18.562;2023-03-14T08:08:37;97828.25;;;11.91;100.00
57024;BME280;42916;54.346;18.562;2023-03-14T08:11:05;97831.04;;;11.92;100.00
57024;BME280;42916;54.346;18.562;2023-03-14T08:13:36;97828.17;;;11.93;99.79
57024;BME280;42916;54.346;18.562;2023-03-14T08:16:03;97827.92;;;11.92;99.46
57024;BME280;42916;54.346;18.562;2023-03-14T08:18:30;97819.98;;;11.93;99.61
57024;BME280;42916;54.346;18.562;2023-03-14T08:20:57;97816.53;;;11.94;99.43
57024;BME280;42916;54.346;18.562;2023-03-14T08:23:24;97807.86;;;11.91;99.10
57024;BME280;42916;54.346;18.562;2023-03-14T08:25:51;97814.36;;;11.90;99.19
57024;BME280;42916;54.346;18.562;2023-03-14T08:28:18;97817.60;;;11.92;98.90
57024;BME280;42916;54.346;18.562;2023-03-14T08:30:45;97811.85;;;11.94;99.03
57024;BME280;42916;54.346;18.562;2023-03-14T08:33:12;97810.20;;;12.00;98.98
57024;BME280;42916;54.346;18.562;2023-03-14T08:35:38;97808.01;;;12.02;98.49
57024;BME280;42916;54.346;18.562;2023-03-14T08:38:05;97801.17;;;12.03;98.36
57024;BME280;42916;54.346;18.562;2023-03-14T08:40:32;97799.83;;;12.02;98.26
57024;BME280;42916;54.346;18.562;2023-03-14T08:42:59;97797.15;;;12.00;97.84
57024;BME280;42916;54.346;18.562;2023-03-14T08:45:27;97780.21;;;11.97;97.78
57024;BME280;42916;54.346;18.562;2023-03-14T08:47:53;97769.79;;;11.97;97.65
57024;BME280;42916;54.346;18.562;2023-03-14T08:50:20;97784.12;;;11.97;97.49
57024;BME280;42916;54.346;18.562;2023-03-14T08:52:47;97774.39;;;11.99;97.62
57024;BME280;42916;54.346;18.562;2023-03-14T08:55:14;97775.45;;;12.04;97.84
57024;BME280;42916;54.346;18.562;2023-03-14T08:57:41;97785.41;;;12.08;97.65
57024;BME280;42916;54.346;18.562;2023-03-14T09:00:08;97787.81;;;12.12;97.62
57024;BME280;42916;54.346;18.562;2023-03-14T09:02:38;97791.48;;;12.16;97.44
57024;BME280;42916;54.346;18.562;2023-03-14T09:05:06;97790.02;;;12.18;97.18
57024;BME280;42916;54.346;18.562;2023-03-14T09:07:33;97786.73;;;12.23;96.90
57024;BME280;42916;54.346;18.562;2023-03-14T09:09:59;97791.95;;;12.28;96.59
57024;BME280;42916;54.346;18.562;2023-03-14T09:12:26;97786.34;;;12.38;96.74
57024;BME280;42916;54.346;18.562;2023-03-14T09:14:53;97779.54;;;12.48;96.76
57024;BME280;42916;54.346;18.562;2023-03-14T09:17:20;97788.02;;;12.54;96.32
57024;BME280;42916;54.346;18.562;2023-03-14T09:19:47;97786.39;;;12.56;95.76
57024;BME280;42916;54.346;18.562;2023-03-14T09:22:14;97786.52;;;12.58;95.84
57024;BME280;42916;54.346;18.562;2023-03-14T09:24:41;97789.68;;;12.61;95.28
57024;BME280;42916;54.346;18.562;2023-03-14T09:27:08;97804.80;;;12.63;94.91
57024;BME280;42916;54.346;18.562;2023-03-14T09:29:35;97813.86;;;12.66;94.98
57024;BME280;42916;54.346;18.562;2023-03-14T09:32:02;97806.62;;;12.70;94.75
57024;BME280;42916;54.346;18.562;2023-03-14T09:34:30;97809.80;;;12.72;94.53
57024;BME280;42916;54.346;18.562;2023-03-14T09:36:56;97817.86;;;12.77;94.53
57024;BME280;42916;54.346;18.562;2023-03-14T09:39:23;97821.32;;;12.82;94.04
57024;BME280;42916;54.346;18.562;2023-03-14T09:41:52;97817.04;;;12.84;93.59
57024;BME280;42916;54.346;18.562;2023-03-14T09:44:27;97804.13;;;12.85;93.13
57024;BME280;42916;54.346;18.562;2023-03-14T09:47:00;97813.45;;;12.86;93.32
57024;BME280;42916;54.346;18.562;2023-03-14T09:49:34;97820.29;;;12.88;93.11
57024;BME280;42916;54.346;18.562;2023-03-14T09:52:10;97821.05;;;12.85;92.72
57024;BME280;42916;54.346;18.562;2023-03-14T09:54:47;97817.60;;;12.81;92.26
57024;BME280;42916;54.346;18.562;2023-03-14T09:57:21;97822.67;;;12.72;92.13
57024;BME280;42916;54.346;18.562;2023-03-14T09:59:51;97828.06;;;12.64;91.90
57024;BME280;42916;54.346;18.562;2023-03-14T10:02:21;97830.59;;;12.55;91.78
57024;BME280;42916;54.346;18.562;2023-03-14T10:04:52;97827.61;;;12.44;92.06
57024;BME280;42916;54.346;18.562;2023-03-14T10:07:31;97820.69;;;12.36;92.14
57024;BME280;42916;54.346;18.562;2023-03-14T10:09:58;97821.27;;;12.27;92.38
57024;BME280;42916;54.346;18.562;2023-03-14T10:12:33;97822.35;;;12.19;92.59
57024;BME280;42916;54.346;18.562;2023-03-14T10:15:09;97826.88;;;12.11;92.45
57024;BME280;42916;54.346;18.562;2023-03-14T10:17:46;97829.84;;;12.03;92.71
57024;BME280;42916;54.346;18.562;2023-03-14T10:23:19;97827.79;;;11.95;93.05
57024;BME280;42916;54.346;18.562;2023-03-14T10:25:58;97830.58;;;11.97;93.24
57024;BME280;42916;54.346;18.562;2023-03-14T10:28:37;97835.02;;;11.95;93.44
57024;BME280;42916;54.346;18.562;2023-03-14T10:31:05;97840.70;;;11.96;93.59
57024;BME280;42916;54.346;18.562;2023-03-14T10:33:34;97843.77;;;11.97;93.75
57024;BME280;42916;54.346;18.562;2023-03-14T10:36:05;97844.61;;;11.99;93.83
57024;BME280;42916;54.346;18.562;2023-03-14T10:38:35;97840.10;;;12.01;93.68
57024;BME280;42916;54.346;18.562;2023-03-14T10:41:03;97838.70;;;12.03;93.36
57024;BME280;42916;54.346;18.562;2023-03-14T10:43:41;97835.94;;;12.06;93.56
57024;BME280;42916;54.346;18.562;2023-03-14T10:46:11;97845.50;;;12.12;93.62
57024;BME280;42916;54.346;18.562;2023-03-14T10:48:59;97846.71;;;12.17;93.40
57024;BME280;42916;54.346;18.562;2023-03-14T10:51:30;97842.52;;;12.19;93.26
57024;BME280;42916;54.346;18.562;2023-03-14T10:54:23;97845.16;;;12.21;93.14
57024;BME280;42916;54.346;18.562;2023-03-14T10:56:59;97846.46;;;12.16;92.67
57024;BME280;42916;54.346;18.562;2023-03-14T10:59:35;97843.88;;;12.14;92.58
57024;BME280;42916;54.346;18.562;2023-03-14T11:05:12;97824.04;;;12.14;92.55
57024;BME280;42916;54.346;18.562;2023-03-14T11:07:44;97819.92;;;12.11;92.49
57024;BME280;42916;54.346;18.562;2023-03-14T11:13:47;97815.84;;;12.10;92.55
57024;BME280;42916;54.346;18.562;2023-03-14T11:16:09;97806.21;;;12.15;92.87
57024;BME280;42916;54.346;18.562;2023-03-14T11:21:55;97791.96;;;12.53;92.99
57024;BME280;42916;54.346;18.562;2023-03-14T11:24:34;97792.77;;;12.81;92.69
57024;BME280;42916;54.346;18.562;2023-03-14T11:27:22;97792.09;;;13.04;92.30
57024;BME280;42916;54.346;18.562;2023-03-14T11:32:46;97798.10;;;13.12;90.55
57024;BME280;42916;54.346;18.562;2023-03-14T11:35:26;97799.23;;;13.07;90.23
57024;BME280;42916;54.346;18.562;2023-03-14T11:38:01;97798.50;;;13.04;89.84
57024;BME280;42916;54.346;18.562;2023-03-14T11:40:33;97798.46;;;12.98;89.21
57024;BME280;42916;54.346;18.562;2023-03-14T11:43:11;97797.84;;;12.98;89.27
57024;BME280;42916;54.346;18.562;2023-03-14T11:45:42;97791.70;;;12.99;88.89
57024;BME280;42916;54.346;18.562;2023-03-14T11:48:34;97788.66;;;13.10;89.18
57024;BME280;42916;54.346;18.562;2023-03-14T11:51:09;97778.80;;;13.23;88.65
57024;BME280;42916;54.346;18.562;2023-03-14T11:56:30;97773.05;;;13.47;87.32
57024;BME280;42916;54.346;18.562;2023-03-14T11:59:03;97780.13;;;13.63;87.39
57024;BME280;42916;54.346;18.562;2023-03-14T12:01:49;97783.34;;;13.76;86.84
57024;BME280;42916;54.346;18.562;2023-03-14T12:04:21;97788.59;;;13.76;86.10
57024;BME280;42916;54.346;18.562;2023-03-14T12:06:51;97794.61;;;13.69;85.07
57024;BME280;42916;54.346;18.562;2023-03-14T12:09:20;97790.59;;;13.61;84.96
57024;BME280;42916;54.346;18.562;2023-03-14T12:11:54;97793.81;;;13.57;85.32
57024;BME280;42916;54.346;18.562;2023-03-14T12:14:32;97789.84;;;13.65;85.29
57024;BME280;42916;54.346;18.562;2023-03-14T12:19:37;97797.52;;;13.70;84.72
57024;BME280;42916;54.346;18.562;2023-03-14T12:22:12;97788.09;;;13.73;84.22
57024;BME280;42916;54.346;18.562;2023-03-14T12:24:53;97790.88;;;13.72;83.89
57024;BME280;42916;54.346;18.562;2023-03-14T12:35:50;97792.25;;;13.48;83.37
57024;BME280;42916;54.346;18.562;2023-03-14T12:43:38;97776.66;;;14.24;82.97
57024;BME280;42916;54.346;18.562;2023-03-14T12:48:54;97779.79;;;14.82;80.59
57024;BME280;42916;54.346;18.562;2023-03-14T12:51:39;97777.34;;;15.18;80.26
57024;BME280;42916;54.346;18.562;2023-03-14T12:59:56;97772.44;;;16.25;74.71
57024;BME280;42916;54.346;18.562;2023-03-14T13:02:28;97775.88;;;16.35;74.46
57024;BME280;42916;54.346;18.562;2023-03-14T13:05:03;97776.66;;;16.43;73.62
57024;BME280;42916;54.346;18.562;2023-03-14T13:12:47;97776.70;;;15.87;70.75
57024;BME280;42916;54.346;18.562;2023-03-14T13:15:29;97775.52;;;15.46;70.28
57024;BME280;42916;54.346;18.562;2023-03-14T13:18:02;97770.29;;;15.14;71.23
57024;BME280;42916;54.346;18.562;2023-03-14T13:20:54;97770.27;;;14.99;71.94
57024;BME280;42916;54.346;18.562;2023-03-14T13:23:27;97759.61;;;15.10;72.34
57024;BME280;42916;54.346;18.562;2023-03-14T13:25:56;97760.44;;;15.17;71.88
57024;BME280;42916;54.346;18.562;2023-03-14T13:28:23;97761.41;;;15.31;71.75
57024;BME280;42916;54.346;18.562;2023-03-14T13:30:55;97757.84;;;15.26;71.25
57024;BME280;42916;54.346;18.562;2023-03-14T13:33:23;97764.58;;;15.14;71.07
57024;BME280;42916;54.346;18.562;2023-03-14T13:35:59;97763.55;;;14.99;70.66
57024;BME280;42916;54.346;18.562;2023-03-14T13:38:27;97765.80;;;14.79;70.48
57024;BME280;42916;54.346;18.562;2023-03-14T13:40:57;97769.11;;;14.56;70.59
57024;BME280;42916;54.346;18.562;2023-03-14T13:43:36;97764.27;;;14.40;70.77
57024;BME280;42916;54.346;18.562;2023-03-14T13:46:16;97764.98;;;14.31;71.17
57024;BME280;42916;54.346;18.562;2023-03-14T13:48:55;97766.75;;;14.29;71.61
57024;BME280;42916;54.346;18.562;2023-03-14T13:51:23;97766.54;;;14.30;71.52
57024;BME280;42916;54.346;18.562;2023-03-14T13:53:53;97761.86;;;14.39;71.41
57024;BME280;42916;54.346;18.562;2023-03-14T13:56:26;97762.30;;;14.94;72.25
57024;BME280;42916;54.346;18.562;2023-03-14T13:58:54;97758.92;;;15.68;71.93
57024;BME280;42916;54.346;18.562;2023-03-14T14:01:27;97758.61;;;16.10;70.50
57024;BME280;42916;54.346;18.562;2023-03-14T14:03:58;97753.86;;;16.12;69.20
57024;BME280;42916;54.346;18.562;2023-03-14T14:09:02;97766.79;;;15.88;68.12
57024;BME280;42916;54.346;18.562;2023-03-14T14:11:41;97768.36;;;15.95;68.03